sensor_id;sensor_type;location;lat;lon;timestamp;pressure;altitude;pressure_sealevel;temperature;humidity
65872;BME280;52653;50.080;21.992;2022-12-18T00:00:42;100478.69;;;-4.64;86.70
65872;BME280;52653;50.080;21.992;2022-12-18T00:03:35;100481.40;;;-4.62;86.71
65872;BME280;52653;50.080;21.992;2022-12-18T00:06:09;100483.02;;;-4.60;86.92
65872;BME280;52653;50.080;21.992;2022-12-18T00:08:42;100491.42;;;-4.60;86.88
65872;BME280;52653;50.080;21.992;2022-12-18T00:11:17;100494.98;;;-4.63;87.10
65872;BME280;52653;50.080;21.992;2022-12-18T00:13:50;100498.93;;;-4.65;86.96
65872;BME280;52653;50.080;21.992;2022-12-18T00:16:24;100505.43;;;-4.68;87.25
65872;BME280;52653;50.080;21.992;2022-12-18T00:19:01;100508.05;;;-4.69;87.29
65872;BME280;52653;50.080;21.992;2022-12-18T00:21:33;100508.94;;;-4.69;87.36
65872;BME280;52653;50.080;21.992;2022-12-18T00:24:11;100511.77;;;-4.66;87.36
65872;BME280;52653;50.080;21.992;2022-12-18T00:26:44;100520.94;;;-4.64;87.11
65872;BME280;52653;50.080;21.992;2022-12-18T00:29:16;100522.88;;;-4.63;86.95
65872;BME280;52653;50.080;21.992;2022-12-18T00:31:48;100528.27;;;-4.60;87.05
65872;BME280;52653;50.080;21.992;2022-12-18T00:34:21;100526.08;;;-4.57;87.04
65872;BME280;52653;50.080;21.992;2022-12-18T00:36:55;100532.14;;;-4.56;86.94
65872;BME280;52653;50.080;21.992;2022-12-18T00:39:28;100537.19;;;-4.55;86.69
65872;BME280;52653;50.080;21.992;2022-12-18T00:42:00;100539.58;;;-4.53;86.70
65872;BME280;52653;50.080;21.992;2022-12-18T00:44:51;100544.66;;;-4.51;86.57
65872;BME280;52653;50.080;21.992;2022-12-18T00:47:23;100549.80;;;-4.54;86.10
65872;BME280;52653;50.080;21.992;2022-12-18T00:49:56;100552.02;;;-4.54;86.31
65872;BME280;52653;50.080;21.992;2022-12-18T00:52:28;100558.91;;;-4.57;86.19
65872;BME280;52653;50.080;21.992;2022-12-18T00:55:00;100569.23;;;-4.64;86.26
65872;BME280;52653;50.080;21.992;2022-12-18T00:57:36;100570.49;;;-4.70;86.45
65872;BME280;52653;50.080;21.992;2022-12-18T01:00:12;100572.63;;;-4.76;86.49
65872;BME280;52653;50.080;21.992;2022-12-18T01:02:45;100578.52;;;-4.82;86.62
65872;BME280;52653;50.080;21.992;2022-12-18T01:05:18;100586.60;;;-4.86;86.63
65872;BME280;52653;50.080;21.992;2022-12-18T01:07:50;100590.20;;;-4.88;86.39
65872;BME280;52653;50.080;21.992;2022-12-18T01:10:23;100594.30;;;-4.88;86.58
65872;BME280;52653;50.080;21.992;2022-12-18T01:12:55;100599.16;;;-4.87;86.19
65872;BME280;52653;50.080;21.992;2022-12-18T01:15:27;100604.91;;;-4.85;86.18
65872;BME280;52653;50.080;21.992;2022-12-18T01:17:59;100608.77;;;-4.82;86.22
65872;BME280;52653;50.080;21.992;2022-12-18T01:20:32;100609.79;;;-4.83;86.14
65872;BME280;52653;50.080;21.992;2022-12-18T01:23:05;100615.05;;;-4.85;85.91
65872;BME280;52653;50.080;21.992;2022-12-18T01:25:38;100622.02;;;-4.88;86.00
65872;BME280;52653;50.080;21.992;2022-12-18T01:28:12;100631.30;;;-4.96;85.91
65872;BME280;52653;50.080;21.992;2022-12-18T01:30:44;100637.50;;;-5.02;85.83
65872;BME280;52653;50.080;21.992;2022-12-18T01:33:17;100634.08;;;-5.09;86.17
65872;BME280;52653;50.080;21.992;2022-12-18T01:35:49;100639.11;;;-5.17;86.39
65872;BME280;52653;50.080;21.992;2022-12-18T01:38:21;100642.83;;;-5.22;86.65
65872;BME280;52653;50.080;21.992;2022-12-18T01:40:59;100649.33;;;-5.26;86.83
65872;BME280;52653;50.080;21.992;2022-12-18T01:43:50;100651.30;;;-5.27;86.89
65872;BME280;52653;50.080;21.992;2022-12-18T01:46:24;100655.45;;;-5.29;87.22
65872;BME280;52653;50.080;21.992;2022-12-18T01:49:01;100654.23;;;-5.27;87.32
65872;BME280;52653;50.080;21.992;2022-12-18T01:51:34;100655.14;;;-5.26;87.66
65872;BME280;52653;50.080;21.992;2022-12-18T01:54:06;100663.45;;;-5.22;87.52
65872;BME280;52653;50.080;21.992;2022-12-18T01:56:38;100659.48;;;-5.21;87.54
65872;BME280;52653;50.080;21.992;2022-12-18T01:59:11;100662.11;;;-5.16;87.73
65872;BME280;52653;50.080;21.992;2022-12-18T02:01:44;100668.73;;;-5.10;87.54
65872;BME280;52653;50.080;21.992;2022-12-18T02:04:22;100668.27;;;-5.09;87.38
65872;BME280;52653;50.080;21.992;2022-12-18T02:06:59;100668.98;;;-5.11;87.78
65872;BME280;52653;50.080;21.992;2022-12-18T02:09:36;100675.77;;;-5.14;88.09
65872;BME280;52653;50.080;21.992;2022-12-18T02:12:18;100673.40;;;-5.16;88.19
65872;BME280;52653;50.080;21.992;2022-12-18T02:14:58;100676.14;;;-5.20;88.69
65872;BME280;52653;50.080;21.992;2022-12-18T02:17:37;100681.73;;;-5.27;89.15
65872;BME280;52653;50.080;21.992;2022-12-18T02:20:16;100677.99;;;-5.29;89.41
65872;BME280;52653;50.080;21.992;2022-12-18T02:23:03;100681.19;;;-5.28;89.54
65872;BME280;52653;50.080;21.992;2022-12-18T02:26:01;100683.24;;;-5.25;89.52
65872;BME280;52653;50.080;21.992;2022-12-18T02:28:41;100682.88;;;-5.21;90.01
65872;BME280;52653;50.080;21.992;2022-12-18T02:31:14;100685.96;;;-5.15;89.61
65872;BME280;52653;50.080;21.992;2022-12-18T02:33:49;100686.69;;;-5.10;89.86
65872;BME280;52653;50.080;21.992;2022-12-18T02:36:23;100692.32;;;-5.08;89.87
65872;BME280;52653;50.080;21.992;2022-12-18T02:38:59;100692.27;;;-5.04;89.83
65872;BME280;52653;50.080;21.992;2022-12-18T02:41:34;100699.39;;;-4.98;89.92
65872;BME280;52653;50.080;21.992;2022-12-18T02:44:11;100708.02;;;-4.97;90.03
65872;BME280;52653;50.080;21.992;2022-12-18T02:46:48;100706.29;;;-5.00;90.06
65872;BME280;52653;50.080;21.992;2022-12-18T02:49:29;100707.34;;;-4.99;90.09
65872;BME280;52653;50.080;21.992;2022-12-18T02:52:10;100706.80;;;-5.05;90.39
65872;BME280;52653;50.080;21.992;2022-12-18T02:54:57;100708.88;;;-5.08;90.46
65872;BME280;52653;50.080;21.992;2022-12-18T02:57:36;100715.97;;;-5.14;90.92
65872;BME280;52653;50.080;21.992;2022-12-18T03:00:17;100719.68;;;-5.17;90.74
65872;BME280;52653;50.080;21.992;2022-12-18T03:02:56;100716.63;;;-5.14;91.02
65872;BME280;52653;50.080;21.992;2022-12-18T03:05:36;100714.92;;;-5.12;90.78
65872;BME280;52653;50.080;21.992;2022-12-18T03:08:14;100715.92;;;-5.08;90.81
65872;BME280;52653;50.080;21.992;2022-12-18T03:10:51;100713.55;;;-5.06;90.71
65872;BME280;52653;50.080;21.992;2022-12-18T03:13:30;100720.97;;;-5.07;90.66
65872;BME280;52653;50.080;21.992;2022-12-18T03:16:04;100722.54;;;-5.07;90.47
65872;BME280;52653;50.080;21.992;2022-12-18T03:18:42;100723.30;;;-5.03;90.51
65872;BME280;52653;50.080;21.992;2022-12-18T03:21:21;100730.60;;;-5.02;90.29
65872;BME280;52653;50.080;21.992;2022-12-18T03:23:55;100734.66;;;-5.00;90.21
65872;BME280;52653;50.080;21.992;2022-12-18T03:26:30;100739.80;;;-4.98;89.76
65872;BME280;52653;50.080;21.992;2022-12-18T03:29:09;100739.77;;;-4.94;89.72
65872;BME280;52653;50.080;21.992;2022-12-18T03:31:47;100744.66;;;-4.88;89.62
65872;BME280;52653;50.080;21.992;2022-12-18T03:34:25;100749.53;;;-4.85;89.21
65872;BME280;52653;50.080;21.992;2022-12-18T03:37:02;100755.81;;;-4.83;88.86
65872;BME280;52653;50.080;21.992;2022-12-18T03:39:35;100758.50;;;-4.84;88.76
65872;BME280;52653;50.080;21.992;2022-12-18T03:42:10;100755.73;;;-4.89;88.77
65872;BME280;52653;50.080;21.992;2022-12-18T03:44:57;100766.27;;;-4.94;88.67
65872;BME280;52653;50.080;21.992;2022-12-18T03:47:38;100763.65;;;-5.01;88.63
65872;BME280;52653;50.080;21.992;2022-12-18T03:50:14;100782.18;;;-5.05;88.34
65872;BME280;52653;50.080;21.992;2022-12-18T03:52:52;100787.35;;;-5.07;88.46
65872;BME280;52653;50.080;21.992;2022-12-18T03:55:29;100788.54;;;-5.05;88.44
65872;BME280;52653;50.080;21.992;2022-12-18T03:58:06;100788.13;;;-5.01;88.46
65872;BME280;52653;50.080;21.992;2022-12-18T04:00:51;100794.27;;;-4.99;87.92
65872;BME280;52653;50.080;21.992;2022-12-18T04:03:25;100794.34;;;-4.96;87.71
65872;BME280;52653;50.080;21.992;2022-12-18T04:06:00;100796.82;;;-4.93;87.63
65872;BME280;52653;50.080;21.992;2022-12-18T04:08:35;100800.85;;;-4.94;86.46
65872;BME280;52653;50.080;21.992;2022-12-18T04:11:09;100804.24;;;-4.98;86.39
65872;BME280;52653;50.080;21.992;2022-12-18T04:13:43;100804.47;;;-5.05;86.39
65872;BME280;52653;50.080;21.992;2022-12-18T04:16:26;100807.59;;;-5.10;86.66
65872;BME280;52653;50.080;21.992;2022-12-18T04:19:00;100809.51;;;-5.20;86.13
65872;BME280;52653;50.080;21.992;2022-12-18T04:21:34;100811.42;;;-5.26;86.60
65872;BME280;52653;50.080;21.992;2022-12-18T04:24:07;100811.98;;;-5.28;86.88
65872;BME280;52653;50.080;21.992;2022-12-18T04:26:40;100824.56;;;-5.29;86.67
65872;BME280;52653;50.080;21.992;2022-12-18T04:29:21;100829.23;;;-5.28;86.63
65872;BME280;52653;50.080;21.992;2022-12-18T04:31:55;100831.20;;;-5.27;86.41
65872;BME280;52653;50.080;21.992;2022-12-18T04:34:29;100840.27;;;-5.23;86.60
65872;BME280;52653;50.080;21.992;2022-12-18T04:37:01;100847.94;;;-5.19;86.53
65872;BME280;52653;50.080;21.992;2022-12-18T04:39:35;100848.74;;;-5.17;86.25
65872;BME280;52653;50.080;21.992;2022-12-18T04:42:11;100850.67;;;-5.15;86.19
65872;BME280;52653;50.080;21.992;2022-12-18T04:44:44;100859.20;;;-5.15;85.98
65872;BME280;52653;50.080;21.992;2022-12-18T04:47:16;100859.25;;;-5.19;85.74
65872;BME280;52653;50.080;21.992;2022-12-18T04:49:48;100861.62;;;-5.23;85.67
65872;BME280;52653;50.080;21.992;2022-12-18T04:52:21;100867.48;;;-5.29;85.44
65872;BME280;52653;50.080;21.992;2022-12-18T04:54:56;100869.55;;;-5.35;85.63
65872;BME280;52653;50.080;21.992;2022-12-18T04:57:28;100871.73;;;-5.38;85.93
65872;BME280;52653;50.080;21.992;2022-12-18T05:00:00;100873.35;;;-5.36;85.91
65872;BME280;52653;50.080;21.992;2022-12-18T05:02:32;100876.61;;;-5.34;85.82
65872;BME280;52653;50.080;21.992;2022-12-18T05:05:06;100875.48;;;-5.31;85.85
65872;BME280;52653;50.080;21.992;2022-12-18T05:07:39;100877.98;;;-5.29;85.45
65872;BME280;52653;50.080;21.992;2022-12-18T05:10:11;100879.52;;;-5.28;85.16
65872;BME280;52653;50.080;21.992;2022-12-18T05:12:43;100882.82;;;-5.25;85.23
65872;BME280;52653;50.080;21.992;2022-12-18T05:15:32;100881.22;;;-5.22;85.22
65872;BME280;52653;50.080;21.992;2022-12-18T05:18:05;100886.28;;;-5.20;85.12
65872;BME280;52653;50.080;21.992;2022-12-18T05:20:37;100893.63;;;-5.22;84.94
65872;BME280;52653;50.080;21.992;2022-12-18T05:23:09;100894.11;;;-5.27;84.86
65872;BME280;52653;50.080;21.992;2022-12-18T05:25:41;100898.02;;;-5.29;85.15
65872;BME280;52653;50.080;21.992;2022-12-18T05:28:14;100901.59;;;-5.32;84.79
65872;BME280;52653;50.080;21.992;2022-12-18T05:30:50;100904.32;;;-5.32;84.93
65872;BME280;52653;50.080;21.992;2022-12-18T05:33:24;100908.05;;;-5.30;85.03
65872;BME280;52653;50.080;21.992;2022-12-18T05:35:58;100916.08;;;-5.28;84.41
65872;BME280;52653;50.080;21.992;2022-12-18T05:38:32;100918.17;;;-5.28;84.01
65872;BME280;52653;50.080;21.992;2022-12-18T05:41:06;100916.22;;;-5.26;83.90
65872;BME280;52653;50.080;21.992;2022-12-18T05:43:39;100916.14;;;-5.25;83.85
65872;BME280;52653;50.080;21.992;2022-12-18T05:46:13;100920.19;;;-5.22;83.46
65872;BME280;52653;50.080;21.992;2022-12-18T05:48:47;100926.02;;;-5.22;83.17
65872;BME280;52653;50.080;21.992;2022-12-18T05:51:22;100929.40;;;-5.20;83.49
65872;BME280;52653;50.080;21.992;2022-12-18T05:53:56;100932.94;;;-5.21;83.19
65872;BME280;52653;50.080;21.992;2022-12-18T05:56:28;100932.88;;;-5.23;83.47
65872;BME280;52653;50.080;21.992;2022-12-18T05:59:00;100937.11;;;-5.24;83.62
65872;BME280;52653;50.080;21.992;2022-12-18T06:01:32;100934.94;;;-5.25;83.66
65872;BME280;52653;50.080;21.992;2022-12-18T06:04:05;100937.27;;;-5.28;83.39
65872;BME280;52653;50.080;21.992;2022-12-18T06:06:39;100940.04;;;-5.30;83.74
65872;BME280;52653;50.080;21.992;2022-12-18T06:09:11;100941.39;;;-5.28;83.53
65872;BME280;52653;50.080;21.992;2022-12-18T06:11:43;100946.86;;;-5.24;83.48
65872;BME280;52653;50.080;21.992;2022-12-18T06:14:16;100946.29;;;-5.19;83.36
65872;BME280;52653;50.080;21.992;2022-12-18T06:16:49;100949.89;;;-5.12;83.37
65872;BME280;52653;50.080;21.992;2022-12-18T06:19:23;100951.27;;;-5.04;83.57
65872;BME280;52653;50.080;21.992;2022-12-18T06:21:56;100957.88;;;-4.98;83.36
65872;BME280;52653;50.080;21.992;2022-12-18T06:24:29;100961.77;;;-4.96;83.33
65872;BME280;52653;50.080;21.992;2022-12-18T06:27:02;100967.02;;;-4.99;82.81
65872;BME280;52653;50.080;21.992;2022-12-18T06:29:34;100973.59;;;-5.01;83.16
65872;BME280;52653;50.080;21.992;2022-12-18T06:32:06;100982.88;;;-5.02;83.24
65872;BME280;52653;50.080;21.992;2022-12-18T06:34:39;100980.69;;;-5.04;83.39
65872;BME280;52653;50.080;21.992;2022-12-18T06:37:11;100983.88;;;-5.07;83.26
65872;BME280;52653;50.080;21.992;2022-12-18T06:39:44;100990.89;;;-5.07;83.53
65872;BME280;52653;50.080;21.992;2022-12-18T06:42:16;100991.31;;;-5.04;83.41
65872;BME280;52653;50.080;21.992;2022-12-18T06:44:53;100996.61;;;-4.98;83.32
65872;BME280;52653;50.080;21.992;2022-12-18T06:47:25;100991.88;;;-4.91;83.23
65872;BME280;52653;50.080;21.992;2022-12-18T06:49:57;100992.61;;;-4.84;83.00
65872;BME280;52653;50.080;21.992;2022-12-18T06:52:31;100993.98;;;-4.78;82.60
65872;BME280;52653;50.080;21.992;2022-12-18T06:55:03;100997.89;;;-4.74;82.22
65872;BME280;52653;50.080;21.992;2022-12-18T06:57:37;101001.32;;;-4.71;82.21
65872;BME280;52653;50.080;21.992;2022-12-18T07:00:10;101004.91;;;-4.69;82.24
65872;BME280;52653;50.080;21.992;2022-12-18T07:02:43;101007.32;;;-4.69;82.14
65872;BME280;52653;50.080;21.992;2022-12-18T07:05:15;101008.52;;;-4.67;82.57
65872;BME280;52653;50.080;21.992;2022-12-18T07:07:49;101010.82;;;-4.66;82.60
65872;BME280;52653;50.080;21.992;2022-12-18T07:10:21;101014.91;;;-4.66;82.53
65872;BME280;52653;50.080;21.992;2022-12-18T07:12:53;101021.09;;;-4.66;82.71
65872;BME280;52653;50.080;21.992;2022-12-18T07:15:25;101027.72;;;-4.67;82.48
65872;BME280;52653;50.080;21.992;2022-12-18T07:17:57;101030.55;;;-4.63;82.52
65872;BME280;52653;50.080;21.992;2022-12-18T07:20:30;101033.44;;;-4.56;82.68
65872;BME280;52653;50.080;21.992;2022-12-18T07:23:03;101036.13;;;-4.45;82.58
65872;BME280;52653;50.080;21.992;2022-12-18T07:25:36;101041.49;;;-4.36;82.34
65872;BME280;52653;50.080;21.992;2022-12-18T07:28:10;101042.02;;;-4.30;81.78
65872;BME280;52653;50.080;21.992;2022-12-18T07:30:47;101045.80;;;-4.25;81.81
65872;BME280;52653;50.080;21.992;2022-12-18T07:33:19;101049.79;;;-4.21;81.87
65872;BME280;52653;50.080;21.992;2022-12-18T07:35:51;101051.96;;;-4.15;82.00
65872;BME280;52653;50.080;21.992;2022-12-18T07:38:24;101053.35;;;-4.12;81.84
65872;BME280;52653;50.080;21.992;2022-12-18T07:41:01;101059.61;;;-4.09;81.86
65872;BME280;52653;50.080;21.992;2022-12-18T07:43:36;101063.59;;;-4.06;81.92
65872;BME280;52653;50.080;21.992;2022-12-18T07:46:11;101065.22;;;-4.09;81.84
65872;BME280;52653;50.080;21.992;2022-12-18T07:48:46;101069.52;;;-4.11;81.54
65872;BME280;52653;50.080;21.992;2022-12-18T07:51:20;101072.59;;;-4.07;81.84
65872;BME280;52653;50.080;21.992;2022-12-18T07:53:52;101070.08;;;-3.98;81.86
65872;BME280;52653;50.080;21.992;2022-12-18T07:56:24;101071.38;;;-3.89;81.64
65872;BME280;52653;50.080;21.992;2022-12-18T07:59:02;101073.41;;;-3.78;81.87
65872;BME280;52653;50.080;21.992;2022-12-18T08:01:34;101077.77;;;-3.64;81.45
65872;BME280;52653;50.080;21.992;2022-12-18T08:04:07;101081.77;;;-3.61;80.66
65872;BME280;52653;50.080;21.992;2022-12-18T08:06:39;101083.32;;;-3.61;80.83
65872;BME280;52653;50.080;21.992;2022-12-18T08:09:17;101081.02;;;-3.55;81.49
65872;BME280;52653;50.080;21.992;2022-12-18T08:11:49;101087.44;;;-3.55;80.99
65872;BME280;52653;50.080;21.992;2022-12-18T08:14:22;101092.20;;;-3.59;80.87
65872;BME280;52653;50.080;21.992;2022-12-18T08:16:54;101096.14;;;-3.59;81.01
65872;BME280;52653;50.080;21.992;2022-12-18T08:19:26;101100.30;;;-3.57;81.54
65872;BME280;52653;50.080;21.992;2022-12-18T08:21:59;101102.14;;;-3.53;81.17
65872;BME280;52653;50.080;21.992;2022-12-18T08:24:31;101109.95;;;-3.45;81.34
65872;BME280;52653;50.080;21.992;2022-12-18T08:27:03;101111.20;;;-3.36;80.80
65872;BME280;52653;50.080;21.992;2022-12-18T08:29:56;101114.78;;;-3.29;80.15
65872;BME280;52653;50.080;21.992;2022-12-18T08:32:28;101111.83;;;-3.19;80.38
65872;BME280;52653;50.080;21.992;2022-12-18T08:35:02;101112.98;;;-3.05;80.53
65872;BME280;52653;50.080;21.992;2022-12-18T08:37:34;101116.74;;;-3.00;79.78
65872;BME280;52653;50.080;21.992;2022-12-18T08:40:09;101121.06;;;-2.97;79.66
65872;BME280;52653;50.080;21.992;2022-12-18T08:42:41;101122.48;;;-2.94;79.86
65872;BME280;52653;50.080;21.992;2022-12-18T08:45:31;101127.80;;;-2.90;79.86
65872;BME280;52653;50.080;21.992;2022-12-18T08:48:03;101134.76;;;-2.91;79.58
65872;BME280;52653;50.080;21.992;2022-12-18T08:50:35;101131.02;;;-2.92;79.41
65872;BME280;52653;50.080;21.992;2022-12-18T08:53:07;101127.98;;;-2.92;79.92
65872;BME280;52653;50.080;21.992;2022-12-18T08:55:39;101127.11;;;-2.90;79.87
65872;BME280;52653;50.080;21.992;2022-12-18T08:58:21;101130.17;;;-2.83;79.92
65872;BME280;52653;50.080;21.992;2022-12-18T09:00:53;101136.70;;;-2.77;79.41
65872;BME280;52653;50.080;21.992;2022-12-18T09:03:25;101139.81;;;-2.74;79.11
65872;BME280;52653;50.080;21.992;2022-12-18T09:05:57;101136.55;;;-2.72;79.01
65872;BME280;52653;50.080;21.992;2022-12-18T09:08:30;101137.31;;;-2.67;79.12
65872;BME280;52653;50.080;21.992;2022-12-18T09:11:02;101137.42;;;-2.65;78.89
65872;BME280;52653;50.080;21.992;2022-12-18T09:13:35;101138.46;;;-2.63;78.63
65872;BME280;52653;50.080;21.992;2022-12-18T09:16:08;101136.65;;;-2.62;78.70
65872;BME280;52653;50.080;21.992;2022-12-18T09:18:40;101141.27;;;-2.59;78.47
65872;BME280;52653;50.080;21.992;2022-12-18T09:21:15;101141.91;;;-2.62;77.98
65872;BME280;52653;50.080;21.992;2022-12-18T09:23:53;101145.53;;;-2.64;78.13
65872;BME280;52653;50.080;21.992;2022-12-18T09:26:25;101148.98;;;-2.69;77.88
65872;BME280;52653;50.080;21.992;2022-12-18T09:28:58;101151.27;;;-2.68;77.97
65872;BME280;52653;50.080;21.992;2022-12-18T09:31:30;101156.70;;;-2.67;77.33
65872;BME280;52653;50.080;21.992;2022-12-18T09:34:02;101154.79;;;-2.64;77.37
65872;BME280;52653;50.080;21.992;2022-12-18T09:36:35;101153.39;;;-2.63;77.15
65872;BME280;52653;50.080;21.992;2022-12-18T09:39:07;101152.23;;;-2.57;77.32
65872;BME280;52653;50.080;21.992;2022-12-18T09:41:45;101150.36;;;-2.53;76.88
65872;BME280;52653;50.080;21.992;2022-12-18T09:44:25;101155.49;;;-2.51;75.90
65872;BME280;52653;50.080;21.992;2022-12-18T09:47:12;101152.79;;;-2.55;74.87
65872;BME280;52653;50.080;21.992;2022-12-18T09:49:48;101155.02;;;-2.66;73.86
65872;BME280;52653;50.080;21.992;2022-12-18T09:52:25;101148.29;;;-2.71;74.30
65872;BME280;52653;50.080;21.992;2022-12-18T09:55:03;101150.37;;;-2.69;74.51
65872;BME280;52653;50.080;21.992;2022-12-18T09:57:42;101153.27;;;-2.64;75.17
65872;BME280;52653;50.080;21.992;2022-12-18T10:00:20;101155.74;;;-2.70;74.59
65872;BME280;52653;50.080;21.992;2022-12-18T10:02:55;101154.34;;;-2.73;74.80
65872;BME280;52653;50.080;21.992;2022-12-18T10:05:36;101157.52;;;-2.67;75.35
65872;BME280;52653;50.080;21.992;2022-12-18T10:08:13;101161.48;;;-2.60;75.42
65872;BME280;52653;50.080;21.992;2022-12-18T10:10:51;101163.42;;;-2.53;75.12
65872;BME280;52653;50.080;21.992;2022-12-18T10:13:30;101166.50;;;-2.49;74.84
65872;BME280;52653;50.080;21.992;2022-12-18T10:16:11;101166.90;;;-2.43;74.95
65872;BME280;52653;50.080;21.992;2022-12-18T10:19:04;101162.64;;;-2.45;74.55
65872;BME280;52653;50.080;21.992;2022-12-18T10:21:48;101164.02;;;-2.45;75.17
65872;BME280;52653;50.080;21.992;2022-12-18T10:24:26;101166.90;;;-2.43;75.80
65872;BME280;52653;50.080;21.992;2022-12-18T10:27:12;101166.98;;;-2.42;75.76
65872;BME280;52653;50.080;21.992;2022-12-18T10:29:46;101168.17;;;-2.47;75.28
65872;BME280;52653;50.080;21.992;2022-12-18T10:32:21;101170.19;;;-2.52;74.94
65872;BME280;52653;50.080;21.992;2022-12-18T10:34:56;101168.55;;;-2.58;74.92
65872;BME280;52653;50.080;21.992;2022-12-18T10:37:31;101171.33;;;-2.64;74.02
65872;BME280;52653;50.080;21.992;2022-12-18T10:40:12;101169.82;;;-2.68;74.43
65872;BME280;52653;50.080;21.992;2022-12-18T10:43:04;101173.92;;;-2.75;74.18
65872;BME280;52653;50.080;21.992;2022-12-18T10:45:38;101179.61;;;-2.81;74.88
65872;BME280;52653;50.080;21.992;2022-12-18T10:48:20;101179.40;;;-2.82;75.02
65872;BME280;52653;50.080;21.992;2022-12-18T10:50:55;101185.89;;;-2.74;75.55
65872;BME280;52653;50.080;21.992;2022-12-18T10:53:44;101192.02;;;-2.72;74.23
65872;BME280;52653;50.080;21.992;2022-12-18T10:56:26;101185.59;;;-2.64;74.51
65872;BME280;52653;50.080;21.992;2022-12-18T10:59:01;101182.64;;;-2.57;73.83
65872;BME280;52653;50.080;21.992;2022-12-18T11:01:52;101178.65;;;-2.60;72.83
65872;BME280;52653;50.080;21.992;2022-12-18T11:04:28;101180.89;;;-2.60;72.53
65872;BME280;52653;50.080;21.992;2022-12-18T11:07:02;101180.66;;;-2.58;72.78
65872;BME280;52653;50.080;21.992;2022-12-18T11:09:36;101177.10;;;-2.54;73.39
65872;BME280;52653;50.080;21.992;2022-12-18T11:12:17;101177.43;;;-2.52;73.22
65872;BME280;52653;50.080;21.992;2022-12-18T11:14:51;101176.89;;;-2.50;73.70
65872;BME280;52653;50.080;21.992;2022-12-18T11:17:27;101179.95;;;-2.52;72.96
65872;BME280;52653;50.080;21.992;2022-12-18T11:20:03;101181.66;;;-2.53;73.11
65872;BME280;52653;50.080;21.992;2022-12-18T11:22:37;101180.27;;;-2.53;72.78
65872;BME280;52653;50.080;21.992;2022-12-18T11:25:19;101181.77;;;-2.60;72.01
65872;BME280;52653;50.080;21.992;2022-12-18T11:28:05;101179.61;;;-2.63;72.52
65872;BME280;52653;50.080;21.992;2022-12-18T11:31:21;101186.77;;;-2.67;72.64
65872;BME280;52653;50.080;21.992;2022-12-18T11:34:03;101187.45;;;-2.66;72.46
65872;BME280;52653;50.080;21.992;2022-12-18T11:36:59;101180.02;;;-2.58;73.17
65872;BME280;52653;50.080;21.992;2022-12-18T11:39:38;101182.91;;;-2.48;73.03
65872;BME280;52653;50.080;21.992;2022-12-18T11:42:17;101178.96;;;-2.38;72.80
65872;BME280;52653;50.080;21.992;2022-12-18T11:44:52;101174.95;;;-2.34;71.67
65872;BME280;52653;50.080;21.992;2022-12-18T11:47:31;101172.64;;;-2.38;71.00
65872;BME280;52653;50.080;21.992;2022-12-18T11:50:12;101178.65;;;-2.45;70.68
65872;BME280;52653;50.080;21.992;2022-12-18T11:52:46;101181.25;;;-2.51;70.97
65872;BME280;52653;50.080;21.992;2022-12-18T11:55:32;101185.64;;;-2.52;71.15
65872;BME280;52653;50.080;21.992;2022-12-18T11:58:15;101186.68;;;-2.52;71.69
65872;BME280;52653;50.080;21.992;2022-12-18T12:00:57;101191.51;;;-2.54;71.35
65872;BME280;52653;50.080;21.992;2022-12-18T12:04:04;101191.58;;;-2.53;72.10
65872;BME280;52653;50.080;21.992;2022-12-18T12:06:49;101192.44;;;-2.57;71.67
65872;BME280;52653;50.080;21.992;2022-12-18T12:09:37;101191.66;;;-2.63;71.98
65872;BME280;52653;50.080;21.992;2022-12-18T12:12:26;101196.38;;;-2.64;72.02
65872;BME280;52653;50.080;21.992;2022-12-18T12:15:06;101194.16;;;-2.69;71.80
65872;BME280;52653;50.080;21.992;2022-12-18T12:17:49;101191.84;;;-2.81;71.67
65872;BME280;52653;50.080;21.992;2022-12-18T12:20:25;101188.06;;;-2.85;71.98
65872;BME280;52653;50.080;21.992;2022-12-18T12:23:15;101191.66;;;-2.87;72.14
65872;BME280;52653;50.080;21.992;2022-12-18T12:26:01;101193.05;;;-2.87;72.69
65872;BME280;52653;50.080;21.992;2022-12-18T12:28:42;101195.88;;;-2.82;72.31
65872;BME280;52653;50.080;21.992;2022-12-18T12:31:27;101197.60;;;-2.80;72.33
65872;BME280;52653;50.080;21.992;2022-12-18T12:34:07;101203.47;;;-2.73;72.64
65872;BME280;52653;50.080;21.992;2022-12-18T12:36:53;101206.23;;;-2.66;72.64
65872;BME280;52653;50.080;21.992;2022-12-18T12:39:32;101206.33;;;-2.60;72.66
65872;BME280;52653;50.080;21.992;2022-12-18T12:42:11;101213.54;;;-2.63;72.04
65872;BME280;52653;50.080;21.992;2022-12-18T12:45:06;101214.54;;;-2.72;72.32
65872;BME280;52653;50.080;21.992;2022-12-18T12:47:48;101216.46;;;-2.76;72.87
65872;BME280;52653;50.080;21.992;2022-12-18T12:50:22;101219.55;;;-2.80;72.88
65872;BME280;52653;50.080;21.992;2022-12-18T12:52:56;101220.38;;;-2.89;72.75
65872;BME280;52653;50.080;21.992;2022-12-18T12:55:30;101222.58;;;-2.96;72.96
65872;BME280;52653;50.080;21.992;2022-12-18T12:58:10;101227.52;;;-3.08;72.57
65872;BME280;52653;50.080;21.992;2022-12-18T13:00:53;101232.34;;;-3.14;72.87
65872;BME280;52653;50.080;21.992;2022-12-18T13:03:40;101232.98;;;-3.18;72.70
65872;BME280;52653;50.080;21.992;2022-12-18T13:06:23;101239.60;;;-3.28;72.52
65872;BME280;52653;50.080;21.992;2022-12-18T13:09:01;101246.56;;;-3.31;73.17
65872;BME280;52653;50.080;21.992;2022-12-18T13:11:37;101246.80;;;-3.35;72.82
65872;BME280;52653;50.080;21.992;2022-12-18T13:14:34;101251.19;;;-3.40;72.70
65872;BME280;52653;50.080;21.992;2022-12-18T13:20:14;101252.41;;;-3.43;73.08
65872;BME280;52653;50.080;21.992;2022-12-18T13:22:48;101253.91;;;-3.42;72.91
65872;BME280;52653;50.080;21.992;2022-12-18T13:25:36;101258.44;;;-3.39;72.98
65872;BME280;52653;50.080;21.992;2022-12-18T13:28:13;101268.53;;;-3.40;72.72
65872;BME280;52653;50.080;21.992;2022-12-18T13:30:49;101276.17;;;-3.38;73.60